Time;durP1;ratioP1;P1;durP2;ratioP2;P2;SDS_P1;SDS_P2;PMS_P1;PMS_P2;Temp;Humidity;BMP_temperature;BMP_pressure;BME280_temperature;BME280_humidity;BME280_pressure;Samples;Min_cycle;Max_cycle;Signal;HPM_P1;HPM_P2
2022/11/11 00:00:23;;;;;;;;;;;11.40;99.90;;;;;;4971602;28;19927;-71
2022/11/11 00:02:49;;;;;;;;;;;11.50;99.90;;;;;;4942069;28;167191;-70
2022/11/11 00:05:15;;;;;;;;;;;11.50;99.90;;;;;;4972876;28;19929;-69
2022/11/11 00:07:42;;;;;;;;;;;11.50;99.90;;;;;;4951146;28;222116;-69
2022/11/11 00:10:08;;;;;;;;;;;11.50;99.90;;;;;;4974023;28;19930;-69
2022/11/11 00:12:34;;;;;;;;;;;11.50;99.90;;;;;;4921684;28;223086;-69
2022/11/11 00:15:00;;;;;;;;;;;11.50;99.90;;;;;;4955101;28;19930;-69
2022/11/11 00:25:52;;;;;;;;;;;11.60;99.90;;;;;;4891255;29;19931;-69
2022/11/11 00:28:18;;;;;;;;;;;11.70;99.90;;;;;;4885838;28;260849;-70
2022/11/11 00:30:44;;;;;;;;;;;11.70;99.90;;;;;;4886985;29;19927;-70
2022/11/11 00:33:10;;;;;;;;;;;11.70;99.90;;;;;;4887416;28;193533;-69
2022/11/11 00:35:55;;;;;;;;;;;11.70;99.90;;;;;;4891996;29;19927;-69
2022/11/11 00:41:05;;;;;;;;;;;11.70;99.90;;;;;;4905254;29;19931;-70
2022/11/11 00:43:31;;;;;;;;;;;11.80;99.90;;;;;;4876898;28;245462;-70
2022/11/11 00:50:57;;;;;;;;;;;11.80;99.90;;;;;;4889656;29;19927;-69
2022/11/11 00:51:28;;;;;;;;;;;11.80;99.90;;;;;;4844709;29;184269;-69
2022/11/11 00:53:54;;;;;;;;;;;11.80;99.90;;;;;;4940530;28;19953;-69
2022/11/11 00:56:20;;;;;;;;;;;11.80;99.90;;;;;;4898934;28;226292;-69
2022/11/11 00:58:47;;;;;;;;;;;11.70;99.90;;;;;;4955891;28;19941;-70
2022/11/11 01:01:12;;;;;;;;;;;11.70;99.90;;;;;;5003394;28;19930;-69
2022/11/11 01:03:38;;;;;;;;;;;11.70;99.90;;;;;;4963958;28;206731;-70
2022/11/11 01:06:04;;;;;;;;;;;11.70;99.90;;;;;;4983683;28;19926;-70
2022/11/11 01:08:31;;;;;;;;;;;11.70;99.90;;;;;;4964998;28;211843;-70
2022/11/11 01:10:57;;;;;;;;;;;11.60;99.90;;;;;;4997682;28;20319;-70
2022/11/11 01:13:24;;;;;;;;;;;11.60;99.90;;;;;;4964173;28;209358;-70
2022/11/11 01:15:51;;;;;;;;;;;11.70;99.90;;;;;;4971278;28;20280;-70
2022/11/11 01:18:19;;;;;;;;;;;11.60;99.90;;;;;;4970985;28;185648;-70
2022/11/11 01:20:45;;;;;;;;;;;11.60;99.90;;;;;;4979393;28;20394;-70
2022/11/11 01:23:12;;;;;;;;;;;11.60;99.90;;;;;;4961031;28;34555;-70
2022/11/11 01:25:39;;;;;;;;;;;11.60;99.90;;;;;;4967840;28;19926;-69
2022/11/11 01:28:05;;;;;;;;;;;11.60;99.90;;;;;;4955708;28;218308;-69
2022/11/11 01:30:32;;;;;;;;;;;11.60;99.90;;;;;;4973146;28;19926;-69
2022/11/11 01:32:59;;;;;;;;;;;11.60;99.90;;;;;;4941187;28;219425;-69
2022/11/11 01:35:25;;;;;;;;;;;11.60;99.90;;;;;;4978253;28;19930;-70
2022/11/11 01:37:50;;;;;;;;;;;11.60;99.90;;;;;;4949133;28;208929;-69
2022/11/11 01:40:17;;;;;;;;;;;11.60;99.90;;;;;;4980201;28;19933;-70
2022/11/11 01:42:50;;;;;;;;;;;11.60;99.90;;;;;;4953281;28;205321;-70
2022/11/11 01:45:35;;;;;;;;;;;11.60;99.90;;;;;;4974581;28;19933;-69
2022/11/11 01:50:45;;;;;;;;;;;11.50;99.90;;;;;;4975305;28;19922;-70
2022/11/11 01:53:11;;;;;;;;;;;11.50;99.90;;;;;;4951481;28;210014;-69
2022/11/11 01:55:38;;;;;;;;;;;11.50;99.90;;;;;;4970809;28;19937;-70
2022/11/11 01:58:09;;;;;;;;;;;11.50;99.90;;;;;;4952836;28;204623;-70
2022/11/11 02:00:35;;;;;;;;;;;11.40;99.90;;;;;;5000415;28;20392;-70
2022/11/11 02:03:06;;;;;;;;;;;11.40;99.90;;;;;;4933892;28;228264;-70
2022/11/11 02:05:41;;;;;;;;;;;11.40;99.90;;;;;;4954694;28;19923;-70
2022/11/11 02:08:31;;;;;;;;;;;11.30;99.90;;;;;;4933264;28;235537;-70
2022/11/11 02:14:34;;;;;;;;;;;11.30;99.90;;;;;;4967632;28;19930;-70
2022/11/11 02:16:50;;;;;;;;;;;11.20;99.90;;;;;;4944112;28;210872;-70
2022/11/11 02:19:21;;;;;;;;;;;11.20;99.90;;;;;;4991276;28;19922;-70
2022/11/11 02:21:54;;;;;;;;;;;11.10;99.90;;;;;;4949627;28;191810;-70
2022/11/11 02:24:20;;;;;;;;;;;11.10;99.90;;;;;;4968157;28;19930;-70
2022/11/11 02:26:47;;;;;;;;;;;11.10;99.90;;;;;;4906248;28;220756;-70
2022/11/11 02:29:14;;;;;;;;;;;11.00;99.90;;;;;;5000453;28;19965;-70
2022/11/11 02:31:40;;;;;;;;;;;11.00;99.90;;;;;;4916788;28;247110;-70
2022/11/11 02:34:06;;;;;;;;;;;11.00;99.90;;;;;;4995770;28;19973;-70
2022/11/11 02:36:32;;;;;;;;;;;11.00;99.90;;;;;;4949467;28;206918;-70
2022/11/11 02:38:59;;;;;;;;;;;10.90;99.90;;;;;;4980569;28;19930;-70
2022/11/11 02:44:10;;;;;;;;;;;10.90;99.90;;;;;;4997771;28;19937;-70
2022/11/11 02:46:36;;;;;;;;;;;10.90;99.90;;;;;;4956231;28;218438;-70
2022/11/11 02:49:02;;;;;;;;;;;10.90;99.90;;;;;;5007659;28;20387;-69
2022/11/11 02:51:28;;;;;;;;;;;10.80;99.90;;;;;;4931410;28;211367;-70
2022/11/11 02:53:57;;;;;;;;;;;10.80;99.90;;;;;;4982118;28;19926;-70
2022/11/11 02:59:08;;;;;;;;;;;10.80;99.90;;;;;;4983537;28;20379;-70
2022/11/11 03:01:34;;;;;;;;;;;10.80;99.90;;;;;;4915086;28;206831;-70
2022/11/11 03:04:00;;;;;;;;;;;10.80;99.90;;;;;;4995779;28;19937;-70
2022/11/11 03:06:26;;;;;;;;;;;10.80;99.90;;;;;;4951162;28;210127;-70
2022/11/11 03:08:52;;;;;;;;;;;10.80;99.90;;;;;;4995912;28;20458;-70
2022/11/11 03:11:26;;;;;;;;;;;10.90;99.90;;;;;;4949968;28;206220;-69
2022/11/11 03:13:56;;;;;;;;;;;10.80;99.90;;;;;;4910497;28;19922;-68
2022/11/11 03:17:38;;;;;;;;;;;10.90;99.90;;;;;;4936625;28;209849;-69
2022/11/11 03:19:11;;;;;;;;;;;10.80;99.90;;;;;;4991477;28;19930;-69
2022/11/11 03:21:37;;;;;;;;;;;10.90;99.90;;;;;;4919196;28;206903;-69
2022/11/11 03:24:03;;;;;;;;;;;10.90;99.90;;;;;;4977357;28;19933;-69
2022/11/11 03:26:29;;;;;;;;;;;10.80;99.90;;;;;;4924793;28;218985;-69
2022/11/11 03:28:55;;;;;;;;;;;10.90;99.90;;;;;;5012303;28;19973;-69
2022/11/11 03:31:21;;;;;;;;;;;10.80;99.90;;;;;;4960589;28;209273;-69
2022/11/11 03:33:47;;;;;;;;;;;10.90;99.90;;;;;;4977732;28;20367;-69
2022/11/11 03:36:13;;;;;;;;;;;10.90;99.90;;;;;;4969023;28;19930;-70
2022/11/11 03:38:39;;;;;;;;;;;10.80;99.90;;;;;;4963494;28;200136;-69
2022/11/11 03:41:05;;;;;;;;;;;10.80;99.90;;;;;;5000119;28;19973;-69
2022/11/11 03:43:32;;;;;;;;;;;10.80;99.90;;;;;;4951251;28;206888;-69
2022/11/11 03:45:59;;;;;;;;;;;10.80;99.90;;;;;;4965878;28;19969;-70
2022/11/11 03:48:26;;;;;;;;;;;10.80;99.90;;;;;;4965292;28;197347;-69
2022/11/11 03:50:52;;;;;;;;;;;10.80;99.90;;;;;;4989814;28;19929;-69
2022/11/11 03:53:19;;;;;;;;;;;10.80;99.90;;;;;;4966003;28;207647;-68
2022/11/11 03:55:45;;;;;;;;;;;10.80;99.90;;;;;;4971953;28;19932;-68
2022/11/11 03:58:11;;;;;;;;;;;10.80;99.90;;;;;;4953745;28;207341;-69
2022/11/11 04:00:38;;;;;;;;;;;10.80;99.90;;;;;;4973305;28;19926;-69
2022/11/11 04:11:28;;;;;;;;;;;10.80;99.90;;;;;;4938415;28;207294;-69
2022/11/11 04:16:42;;;;;;;;;;;10.80;99.90;;;;;;4931546;28;207570;-68
2022/11/11 04:21:54;;;;;;;;;;;10.80;99.90;;;;;;4933807;28;32939;-69
2022/11/11 04:27:06;;;;;;;;;;;10.80;99.90;;;;;;4930513;28;207286;-69
2022/11/11 04:29:33;;;;;;;;;;;10.80;99.90;;;;;;4971272;28;20383;-69
2022/11/11 04:34:46;;;;;;;;;;;10.80;99.90;;;;;;4978604;28;19926;-69
2022/11/11 04:37:12;;;;;;;;;;;10.80;99.90;;;;;;4930888;28;232979;-69
2022/11/11 04:42:23;;;;;;;;;;;10.80;99.90;;;;;;4939479;28;63018;-69
2022/11/11 04:47:34;;;;;;;;;;;10.80;99.90;;;;;;4921516;28;210041;-70
2022/11/11 04:50:00;;;;;;;;;;;10.70;99.90;;;;;;4954546;28;19930;-69
2022/11/11 04:52:26;;;;;;;;;;;10.80;99.90;;;;;;4940917;28;196092;-71
2022/11/11 04:57:41;;;;;;;;;;;10.70;99.90;;;;;;4950185;28;210375;-70
2022/11/11 05:00:12;;;;;;;;;;;10.70;99.90;;;;;;4979702;28;19926;-69
2022/11/11 05:05:23;;;;;;;;;;;10.70;99.90;;;;;;4975735;28;19933;-70
2022/11/11 05:10:35;;;;;;;;;;;10.70;99.90;;;;;;4970999;28;19922;-69
2022/11/11 05:21:35;;;;;;;;;;;10.80;99.90;;;;;;4852546;28;186679;-69
2022/11/11 05:26:45;;;;;;;;;;;10.80;99.90;;;;;;4851224;29;174583;-69
2022/11/11 05:29:11;;;;;;;;;;;10.80;99.90;;;;;;4909409;29;20365;-68
2022/11/11 05:31:37;;;;;;;;;;;10.90;99.90;;;;;;4844686;28;245337;-69
2022/11/11 05:34:03;;;;;;;;;;;10.90;99.90;;;;;;4939505;28;20636;-69
2022/11/11 05:36:29;;;;;;;;;;;10.90;99.90;;;;;;4862057;28;203090;-69
2022/11/11 05:38:55;;;;;;;;;;;11.00;99.90;;;;;;4938051;28;19927;-69
2022/11/11 05:41:21;;;;;;;;;;;11.00;99.90;;;;;;4894064;29;185382;-70
2022/11/11 05:43:47;;;;;;;;;;;11.00;99.90;;;;;;4923652;28;19927;-70
2022/11/11 05:46:13;;;;;;;;;;;11.00;99.90;;;;;;4926030;29;20018;-70
2022/11/11 05:49:13;;;;;;;;;;;11.00;99.90;;;;;;4891458;28;207547;-70
2022/11/11 05:51:26;;;;;;;;;;;11.00;99.90;;;;;;4935818;28;207567;-69
2022/11/11 05:53:53;;;;;;;;;;;11.00;99.90;;;;;;5000786;28;19926;-69
2022/11/11 05:56:19;;;;;;;;;;;11.00;99.90;;;;;;4985609;28;207981;-68
2022/11/11 05:58:44;;;;;;;;;;;11.00;99.90;;;;;;4977430;28;207206;-69
2022/11/11 06:01:10;;;;;;;;;;;11.00;99.90;;;;;;4998775;28;19953;-69
2022/11/11 06:03:36;;;;;;;;;;;11.00;99.90;;;;;;4938627;28;208701;-70
2022/11/11 06:06:02;;;;;;;;;;;11.00;99.90;;;;;;4973304;28;19922;-69
2022/11/11 06:08:28;;;;;;;;;;;11.00;99.90;;;;;;4966504;28;210567;-68
2022/11/11 06:10:54;;;;;;;;;;;11.00;99.90;;;;;;4967325;28;19929;-69
2022/11/11 06:13:20;;;;;;;;;;;11.00;99.90;;;;;;4961278;28;210410;-69
2022/11/11 06:15:46;;;;;;;;;;;10.90;99.90;;;;;;4971935;28;19933;-70
2022/11/11 06:18:12;;;;;;;;;;;10.90;99.90;;;;;;4951838;28;208054;-69
2022/11/11 06:20:38;;;;;;;;;;;10.90;99.90;;;;;;4976067;28;19926;-69
2022/11/11 06:23:04;;;;;;;;;;;10.90;99.90;;;;;;4960541;28;208820;-70
2022/11/11 06:28:16;;;;;;;;;;;10.90;99.90;;;;;;4967649;28;207284;-70
2022/11/11 06:30:42;;;;;;;;;;;10.90;99.90;;;;;;4972712;28;19922;-69
2022/11/11 06:33:08;;;;;;;;;;;10.90;99.90;;;;;;4972504;28;124172;-69
2022/11/11 06:35:38;;;;;;;;;;;10.90;99.90;;;;;;4975209;28;20467;-69
2022/11/11 06:38:05;;;;;;;;;;;10.90;99.90;;;;;;4959776;28;188947;-70
2022/11/11 06:40:32;;;;;;;;;;;10.80;99.90;;;;;;4973908;28;19930;-70
2022/11/11 06:42:58;;;;;;;;;;;10.80;99.90;;;;;;4952449;28;155908;-68
2022/11/11 06:45:25;;;;;;;;;;;10.80;99.90;;;;;;4973345;28;19926;-69
2022/11/11 06:47:51;;;;;;;;;;;10.80;99.90;;;;;;4936834;28;207565;-68
2022/11/11 06:50:17;;;;;;;;;;;10.90;99.90;;;;;;4948073;28;20017;-69
2022/11/11 06:52:43;;;;;;;;;;;10.90;99.90;;;;;;4943135;28;127760;-69
2022/11/11 06:55:10;;;;;;;;;;;10.90;99.90;;;;;;5004971;28;20396;-70
2022/11/11 06:57:36;;;;;;;;;;;10.80;99.90;;;;;;4947995;28;227169;-70
2022/11/11 07:00:04;;;;;;;;;;;10.90;99.90;;;;;;4988704;28;19922;-69
2022/11/11 07:02:30;;;;;;;;;;;10.90;99.90;;;;;;4956796;28;115042;-70
2022/11/11 07:04:55;;;;;;;;;;;10.90;99.90;;;;;;4987332;28;19934;-70
2022/11/11 07:07:21;;;;;;;;;;;10.90;99.90;;;;;;4938472;28;210336;-69
2022/11/11 07:09:48;;;;;;;;;;;10.90;99.90;;;;;;4992496;28;19929;-71
2022/11/11 07:12:14;;;;;;;;;;;10.90;99.90;;;;;;4944844;28;221169;-71
2022/11/11 07:14:40;;;;;;;;;;;10.90;99.90;;;;;;4998802;28;19926;-71
2022/11/11 07:17:06;;;;;;;;;;;10.90;99.90;;;;;;4955382;28;216289;-71
2022/11/11 07:19:32;;;;;;;;;;;10.90;99.90;;;;;;4972248;28;19926;-72
2022/11/11 07:21:58;;;;;;;;;;;10.90;99.90;;;;;;4936434;28;177530;-70
2022/11/11 07:24:23;;;;;;;;;;;10.90;99.90;;;;;;4957405;28;20354;-72
2022/11/11 07:26:49;;;;;;;;;;;10.90;99.90;;;;;;4911584;28;208795;-72
2022/11/11 07:29:15;;;;;;;;;;;10.90;99.90;;;;;;4984016;28;19930;-71
2022/11/11 07:31:41;;;;;;;;;;;10.90;99.90;;;;;;4922097;28;164215;-70
2022/11/11 07:34:07;;;;;;;;;;;10.90;99.90;;;;;;4975281;28;19934;-71
2022/11/11 07:36:33;;;;;;;;;;;10.90;99.90;;;;;;4911301;28;207709;-70
2022/11/11 07:38:59;;;;;;;;;;;11.00;99.90;;;;;;4962619;28;19920;-70
2022/11/11 07:41:25;;;;;;;;;;;10.90;99.90;;;;;;4906083;28;213782;-70
2022/11/11 07:43:51;;;;;;;;;;;10.90;99.90;;;;;;4984221;28;19926;-70
2022/11/11 07:46:17;;;;;;;;;;;11.00;99.90;;;;;;4958302;28;205956;-71
2022/11/11 07:48:43;;;;;;;;;;;10.90;99.90;;;;;;4975825;28;130775;-69
2022/11/11 07:51:09;;;;;;;;;;;11.00;99.90;;;;;;4980737;28;19926;-70
2022/11/11 07:53:35;;;;;;;;;;;11.00;99.90;;;;;;4948641;28;247479;-70
2022/11/11 07:56:01;;;;;;;;;;;11.00;99.90;;;;;;4986617;28;19926;-70
2022/11/11 07:58:27;;;;;;;;;;;11.00;99.90;;;;;;4949834;28;213044;-70
2022/11/11 08:00:53;;;;;;;;;;;11.00;99.90;;;;;;4971030;28;19926;-70
2022/11/11 08:03:19;;;;;;;;;;;11.00;99.90;;;;;;4930665;28;187207;-70
2022/11/11 08:05:45;;;;;;;;;;;11.00;99.90;;;;;;4999356;28;20383;-71
2022/11/11 08:08:11;;;;;;;;;;;11.00;99.90;;;;;;4974079;28;209305;-70
2022/11/11 08:10:37;;;;;;;;;;;11.10;99.90;;;;;;4972498;28;19945;-70
2022/11/11 08:15:49;;;;;;;;;;;11.10;99.90;;;;;;4971302;28;19933;-70
2022/11/11 08:18:15;;;;;;;;;;;11.10;99.90;;;;;;4963543;28;208965;-70
2022/11/11 08:20:41;;;;;;;;;;;11.10;99.90;;;;;;4971786;28;19926;-70
2022/11/11 08:23:09;;;;;;;;;;;11.10;99.90;;;;;;4957858;28;183732;-71
2022/11/11 08:25:35;;;;;;;;;;;11.10;99.90;;;;;;4954406;28;19930;-71
2022/11/11 08:28:02;;;;;;;;;;;11.10;99.90;;;;;;4959547;28;215409;-71
2022/11/11 08:30:29;;;;;;;;;;;11.20;99.90;;;;;;4976013;28;19929;-71
2022/11/11 08:33:01;;;;;;;;;;;11.20;99.90;;;;;;4953587;28;206473;-71
2022/11/11 08:35:28;;;;;;;;;;;11.20;99.90;;;;;;4970666;28;19933;-71
2022/11/11 08:37:54;;;;;;;;;;;11.20;99.90;;;;;;4960648;28;205943;-71
2022/11/11 08:40:20;;;;;;;;;;;11.30;99.90;;;;;;4977170;28;19938;-71
2022/11/11 08:42:46;;;;;;;;;;;11.30;99.90;;;;;;4960479;28;213356;-70
2022/11/11 08:45:12;;;;;;;;;;;11.30;99.90;;;;;;4983208;28;19930;-70
2022/11/11 08:47:38;;;;;;;;;;;11.30;99.90;;;;;;4954591;28;223436;-70
2022/11/11 08:50:05;;;;;;;;;;;11.30;99.90;;;;;;4986222;28;19938;-71
2022/11/11 08:52:32;;;;;;;;;;;11.30;99.90;;;;;;4942241;28;213076;-70
2022/11/11 08:54:59;;;;;;;;;;;11.30;99.90;;;;;;4963381;28;20308;-70
2022/11/11 08:57:25;;;;;;;;;;;11.30;99.90;;;;;;4940833;28;211660;-69
2022/11/11 08:59:51;;;;;;;;;;;11.30;99.90;;;;;;4996719;28;19946;-70
2022/11/11 09:02:17;;;;;;;;;;;11.30;99.90;;;;;;4949632;28;213660;-70
2022/11/11 09:04:43;;;;;;;;;;;11.30;99.90;;;;;;4989981;28;19937;-71
2022/11/11 09:07:09;;;;;;;;;;;11.30;99.90;;;;;;4938537;28;210328;-70
2022/11/11 09:09:35;;;;;;;;;;;11.30;99.90;;;;;;4989245;28;20410;-70
2022/11/11 09:12:01;;;;;;;;;;;11.30;99.90;;;;;;4924946;28;207488;-70
2022/11/11 09:14:27;;;;;;;;;;;11.30;99.90;;;;;;4976155;28;20411;-70
2022/11/11 09:16:53;;;;;;;;;;;11.30;99.90;;;;;;4914774;28;212180;-70
2022/11/11 09:19:19;;;;;;;;;;;11.30;99.90;;;;;;4981621;28;19932;-70
2022/11/11 09:21:45;;;;;;;;;;;11.20;99.90;;;;;;4954938;28;198279;-71
2022/11/11 09:24:11;;;;;;;;;;;11.20;99.90;;;;;;4975644;28;20034;-70
2022/11/11 09:26:37;;;;;;;;;;;11.30;99.90;;;;;;4909991;28;215511;-70
2022/11/11 09:29:03;;;;;;;;;;;11.30;99.90;;;;;;5013313;28;19994;-71
2022/11/11 09:31:29;;;;;;;;;;;11.30;99.90;;;;;;4921943;28;208643;-69
2022/11/11 09:33:56;;;;;;;;;;;11.30;99.90;;;;;;5013728;28;19926;-70
2022/11/11 09:36:22;;;;;;;;;;;11.30;99.90;;;;;;4949656;28;207908;-70
2022/11/11 09:38:47;;;;;;;;;;;11.30;99.90;;;;;;4992584;28;19933;-70
2022/11/11 09:41:21;;;;;;;;;;;11.40;99.90;;;;;;4969308;28;19972;-71
2022/11/11 09:43:55;;;;;;;;;;;11.30;99.90;;;;;;4932727;28;205976;-70
2022/11/11 09:46:26;;;;;;;;;;;11.30;99.90;;;;;;4933057;28;206367;-71
2022/11/11 09:48:52;;;;;;;;;;;11.40;99.90;;;;;;4978506;28;20022;-71
2022/11/11 09:51:41;;;;;;;;;;;11.40;99.90;;;;;;4985022;28;206410;-72
2022/11/11 09:54:10;;;;;;;;;;;11.40;99.90;;;;;;4912221;28;19926;-71
2022/11/11 09:56:37;;;;;;;;;;;11.50;99.90;;;;;;4897878;28;208068;-70
2022/11/11 09:59:09;;;;;;;;;;;11.50;99.90;;;;;;4941492;28;19918;-70
2022/11/11 10:01:41;;;;;;;;;;;11.50;99.90;;;;;;4892580;28;132521;-71
2022/11/11 10:04:21;;;;;;;;;;;11.50;99.90;;;;;;4968581;28;19926;-70
2022/11/11 10:06:49;;;;;;;;;;;11.50;99.90;;;;;;4911686;28;207831;-70
2022/11/11 10:09:18;;;;;;;;;;;11.60;99.90;;;;;;4974331;28;19922;-70
2022/11/11 10:11:59;;;;;;;;;;;11.60;99.90;;;;;;4906503;28;47239;-70
2022/11/11 10:14:29;;;;;;;;;;;11.60;99.90;;;;;;4941380;28;19930;-70
2022/11/11 10:17:01;;;;;;;;;;;11.70;99.90;;;;;;4898779;28;162139;-70
2022/11/11 10:19:46;;;;;;;;;;;11.70;99.90;;;;;;4960701;28;20069;-71
2022/11/11 10:22:19;;;;;;;;;;;11.60;99.90;;;;;;4896058;28;149111;-71
2022/11/11 10:24:48;;;;;;;;;;;11.60;99.90;;;;;;4936456;28;19934;-71
2022/11/11 10:27:16;;;;;;;;;;;11.70;99.90;;;;;;4902580;28;141492;-70
2022/11/11 10:29:43;;;;;;;;;;;11.70;99.90;;;;;;4949502;28;20249;-71
2022/11/11 10:32:17;;;;;;;;;;;11.70;99.90;;;;;;4932013;28;207571;-71
2022/11/11 10:34:42;;;;;;;;;;;11.70;99.90;;;;;;4989358;28;19933;-71
2022/11/11 10:37:20;;;;;;;;;;;11.80;99.90;;;;;;4947394;28;211121;-71
2022/11/11 10:40:05;;;;;;;;;;;11.80;99.90;;;;;;4999222;28;19929;-71
2022/11/11 10:42:31;;;;;;;;;;;11.80;99.90;;;;;;4939116;28;207767;-70
2022/11/11 10:45:01;;;;;;;;;;;11.80;99.90;;;;;;4981937;28;20380;-71
2022/11/11 10:47:27;;;;;;;;;;;11.80;99.90;;;;;;4943609;28;164694;-71
2022/11/11 10:50:13;;;;;;;;;;;11.80;99.90;;;;;;4953013;28;20398;-71
2022/11/11 10:52:40;;;;;;;;;;;11.80;99.90;;;;;;4944513;28;192480;-71
2022/11/11 10:55:24;;;;;;;;;;;11.80;99.90;;;;;;4985226;28;19964;-71
2022/11/11 10:58:01;;;;;;;;;;;11.80;99.90;;;;;;4944761;28;188490;-71
2022/11/11 11:00:29;;;;;;;;;;;11.90;99.90;;;;;;4953954;28;19927;-71
2022/11/11 11:02:55;;;;;;;;;;;11.90;99.90;;;;;;4943346;28;209886;-71
2022/11/11 11:05:24;;;;;;;;;;;12.00;99.90;;;;;;4972714;28;19934;-71
2022/11/11 11:07:52;;;;;;;;;;;12.00;99.90;;;;;;4926736;28;207634;-71
2022/11/11 11:10:25;;;;;;;;;;;12.10;99.90;;;;;;4969800;28;19929;-71
2022/11/11 11:12:57;;;;;;;;;;;12.10;99.90;;;;;;4936007;28;207834;-71
2022/11/11 11:15:25;;;;;;;;;;;12.20;99.90;;;;;;4975963;28;20272;-71
2022/11/11 11:18:03;;;;;;;;;;;12.20;99.90;;;;;;4946682;28;200732;-69
2022/11/11 11:20:31;;;;;;;;;;;12.30;99.90;;;;;;4972639;28;19949;-71
2022/11/11 11:22:58;;;;;;;;;;;12.40;99.90;;;;;;4933026;28;211422;-71
2022/11/11 11:25:25;;;;;;;;;;;12.50;99.90;;;;;;4976051;28;19929;-71
2022/11/11 11:27:52;;;;;;;;;;;12.40;99.90;;;;;;4940604;28;214627;-71
2022/11/11 11:30:23;;;;;;;;;;;12.40;99.90;;;;;;4968933;28;19922;-71
2022/11/11 11:32:59;;;;;;;;;;;12.40;99.90;;;;;;4952484;28;219491;-70
2022/11/11 11:35:33;;;;;;;;;;;12.30;99.90;;;;;;4979436;28;19926;-70
2022/11/11 11:38:00;;;;;;;;;;;12.40;99.90;;;;;;4959886;28;206905;-71
2022/11/11 11:40:26;;;;;;;;;;;12.40;99.90;;;;;;4972856;28;19922;-71
2022/11/11 11:42:51;;;;;;;;;;;12.30;99.90;;;;;;4963187;28;171568;-71
2022/11/11 11:45:20;;;;;;;;;;;12.40;99.90;;;;;;4973632;28;19934;-71
2022/11/11 11:48:04;;;;;;;;;;;12.40;99.90;;;;;;4944629;28;207538;-71
2022/11/11 11:50:50;;;;;;;;;;;12.40;99.90;;;;;;4971272;28;19926;-71
2022/11/11 11:53:21;;;;;;;;;;;12.40;99.90;;;;;;4947954;28;219567;-70
2022/11/11 11:55:50;;;;;;;;;;;12.40;99.90;;;;;;4973732;28;20412;-70
2022/11/11 11:58:25;;;;;;;;;;;12.40;99.90;;;;;;4968542;28;163096;-71
2022/11/11 12:01:03;;;;;;;;;;;12.30;99.90;;;;;;4969300;28;19929;-70
2022/11/11 12:03:29;;;;;;;;;;;12.40;99.90;;;;;;4911356;28;162824;-70
2022/11/11 12:06:14;;;;;;;;;;;12.20;99.90;;;;;;4945966;28;20403;-70
2022/11/11 12:08:46;;;;;;;;;;;12.10;99.90;;;;;;4948214;28;190535;-70
2022/11/11 12:11:24;;;;;;;;;;;12.10;99.90;;;;;;4981678;28;19930;-70
2022/11/11 12:14:02;;;;;;;;;;;12.00;99.90;;;;;;4935993;28;215695;-70
2022/11/11 12:16:37;;;;;;;;;;;12.00;99.90;;;;;;4935354;28;213196;-69
2022/11/11 12:19:12;;;;;;;;;;;12.10;99.90;;;;;;5015270;28;19926;-70
2022/11/11 12:21:41;;;;;;;;;;;12.10;99.90;;;;;;4924983;28;225625;-70
2022/11/11 12:24:13;;;;;;;;;;;12.10;99.90;;;;;;5008041;28;19933;-69
2022/11/11 12:27:01;;;;;;;;;;;12.10;99.90;;;;;;4927132;28;209139;-70
2022/11/11 12:29:56;;;;;;;;;;;12.10;99.90;;;;;;4987193;28;19930;-69
2022/11/11 12:32:37;;;;;;;;;;;12.10;99.90;;;;;;4928918;28;196740;-70
2022/11/11 12:35:09;;;;;;;;;;;12.00;99.90;;;;;;4957381;28;20390;-70
2022/11/11 12:37:37;;;;;;;;;;;12.00;99.90;;;;;;4916993;28;104781;-70
2022/11/11 12:40:15;;;;;;;;;;;11.90;99.90;;;;;;4963058;28;19929;-70
2022/11/11 12:42:59;;;;;;;;;;;12.00;99.90;;;;;;4913686;28;208949;-70
2022/11/11 12:45:30;;;;;;;;;;;12.00;99.90;;;;;;4947550;28;20303;-70
2022/11/11 12:48:05;;;;;;;;;;;12.00;99.90;;;;;;4928090;28;209040;-71
2022/11/11 12:50:37;;;;;;;;;;;11.90;99.90;;;;;;4972392;28;19932;-71
2022/11/11 12:53:03;;;;;;;;;;;11.90;99.90;;;;;;4928738;28;211457;-70
2022/11/11 12:55:39;;;;;;;;;;;11.90;99.90;;;;;;4975226;28;19976;-69
2022/11/11 12:58:14;;;;;;;;;;;11.80;99.90;;;;;;4947729;28;140062;-70
2022/11/11 13:00:50;;;;;;;;;;;11.80;99.90;;;;;;4966918;28;19961;-70
2022/11/11 13:03:18;;;;;;;;;;;11.80;99.90;;;;;;4926575;28;89701;-71
2022/11/11 13:05:52;;;;;;;;;;;11.80;99.90;;;;;;4968876;28;19937;-70
2022/11/11 13:08:18;;;;;;;;;;;11.70;99.90;;;;;;4946741;28;207023;-70
2022/11/11 13:10:48;;;;;;;;;;;11.70;99.90;;;;;;4973489;28;20025;-70
2022/11/11 13:13:13;;;;;;;;;;;11.80;99.90;;;;;;4951432;28;219002;-70
2022/11/11 13:15:39;;;;;;;;;;;11.80;99.90;;;;;;4974317;28;20029;-70
2022/11/11 13:18:13;;;;;;;;;;;11.80;99.90;;;;;;4958719;28;145756;-70
2022/11/11 13:20:42;;;;;;;;;;;11.80;99.90;;;;;;4975264;28;19922;-71
2022/11/11 13:23:11;;;;;;;;;;;11.70;99.90;;;;;;4958181;28;216254;-71
2022/11/11 13:25:39;;;;;;;;;;;11.70;99.90;;;;;;4976286;28;19945;-70
2022/11/11 13:28:07;;;;;;;;;;;11.80;99.90;;;;;;4971640;28;202685;-69
2022/11/11 13:30:51;;;;;;;;;;;11.80;99.90;;;;;;4982194;28;20682;-69
2022/11/11 13:33:23;;;;;;;;;;;11.80;99.90;;;;;;4968824;28;221510;-69
2022/11/11 13:35:52;;;;;;;;;;;11.80;99.90;;;;;;4973788;28;20524;-70
2022/11/11 13:38:24;;;;;;;;;;;11.70;99.90;;;;;;4961142;28;191875;-70
2022/11/11 13:40:51;;;;;;;;;;;11.80;99.90;;;;;;4971278;28;20288;-70
2022/11/11 13:43:22;;;;;;;;;;;11.80;99.90;;;;;;4948863;28;207691;-70
2022/11/11 13:45:49;;;;;;;;;;;11.90;99.90;;;;;;4974271;28;19930;-70
2022/11/11 13:48:36;;;;;;;;;;;11.90;99.90;;;;;;4933559;28;208005;-70
2022/11/11 13:51:18;;;;;;;;;;;11.90;99.90;;;;;;4967958;28;19933;-70
2022/11/11 13:53:45;;;;;;;;;;;12.00;99.90;;;;;;4958203;28;208966;-71
2022/11/11 13:56:11;;;;;;;;;;;12.00;99.90;;;;;;4996267;28;19929;-70
2022/11/11 13:58:40;;;;;;;;;;;12.00;99.90;;;;;;4961365;28;213840;-70
2022/11/11 14:01:07;;;;;;;;;;;12.00;99.90;;;;;;5000645;28;19952;-70
2022/11/11 14:03:34;;;;;;;;;;;12.00;99.90;;;;;;4908730;28;208383;-70
2022/11/11 14:06:15;;;;;;;;;;;12.10;99.90;;;;;;4975757;28;19934;-70
2022/11/11 14:08:44;;;;;;;;;;;12.20;99.90;;;;;;4947680;28;100830;-70
2022/11/11 14:11:25;;;;;;;;;;;12.20;99.90;;;;;;4944508;28;19945;-71
2022/11/11 14:13:52;;;;;;;;;;;12.20;99.90;;;;;;4926514;28;206380;-70
2022/11/11 14:16:34;;;;;;;;;;;12.20;99.90;;;;;;4964907;28;207305;-70
2022/11/11 14:19:15;;;;;;;;;;;12.20;99.90;;;;;;4949984;28;19929;-70
2022/11/11 14:21:48;;;;;;;;;;;12.20;99.90;;;;;;4920695;28;207708;-70
2022/11/11 14:24:25;;;;;;;;;;;12.20;99.90;;;;;;5005758;28;20310;-70
2022/11/11 14:26:58;;;;;;;;;;;12.20;99.90;;;;;;4951470;28;206888;-69
2022/11/11 14:29:26;;;;;;;;;;;12.20;99.90;;;;;;4985517;28;19926;-70
2022/11/11 14:31:52;;;;;;;;;;;12.20;99.90;;;;;;4950234;28;170850;-70
2022/11/11 14:34:37;;;;;;;;;;;12.10;99.90;;;;;;4983834;28;19940;-71
2022/11/11 14:37:13;;;;;;;;;;;12.10;99.90;;;;;;4929341;28;206883;-71
2022/11/11 14:39:53;;;;;;;;;;;12.10;99.90;;;;;;4979709;28;19933;-70
2022/11/11 14:42:34;;;;;;;;;;;12.10;99.90;;;;;;4934683;28;225547;-70
2022/11/11 14:45:04;;;;;;;;;;;12.10;99.90;;;;;;4986954;28;19937;-71
2022/11/11 14:47:34;;;;;;;;;;;12.10;99.90;;;;;;4950658;28;200026;-70
2022/11/11 14:50:00;;;;;;;;;;;12.10;99.90;;;;;;4973844;28;19934;-71
2022/11/11 14:52:45;;;;;;;;;;;12.10;99.90;;;;;;4922254;28;209083;-70
2022/11/11 14:55:11;;;;;;;;;;;12.10;99.90;;;;;;4958509;28;19923;-70
2022/11/11 14:57:50;;;;;;;;;;;12.00;99.90;;;;;;4940908;28;198337;-70
2022/11/11 15:00:18;;;;;;;;;;;12.10;99.90;;;;;;4997021;28;19930;-70
2022/11/11 15:02:50;;;;;;;;;;;12.10;99.90;;;;;;4943067;28;211449;-71
2022/11/11 15:05:18;;;;;;;;;;;12.00;99.90;;;;;;4963067;28;19937;-71
2022/11/11 15:07:44;;;;;;;;;;;12.00;99.90;;;;;;4943983;28;222907;-71
2022/11/11 15:10:31;;;;;;;;;;;12.00;99.90;;;;;;4985661;28;19926;-71
2022/11/11 15:12:56;;;;;;;;;;;12.10;99.90;;;;;;4945526;28;210430;-71
2022/11/11 15:15:35;;;;;;;;;;;12.00;99.90;;;;;;4970362;28;19922;-71
2022/11/11 15:18:01;;;;;;;;;;;12.00;99.90;;;;;;4950089;28;206488;-71
2022/11/11 15:20:33;;;;;;;;;;;12.00;99.90;;;;;;4973010;28;19926;-71
2022/11/11 15:22:59;;;;;;;;;;;12.00;99.90;;;;;;4950216;28;172900;-71
2022/11/11 15:25:32;;;;;;;;;;;12.00;99.90;;;;;;4971547;28;19930;-70
2022/11/11 15:28:34;;;;;;;;;;;11.90;99.90;;;;;;4933675;28;190108;-70
2022/11/11 15:31:07;;;;;;;;;;;11.90;99.90;;;;;;4958600;28;19927;-70
2022/11/11 15:33:40;;;;;;;;;;;11.90;99.90;;;;;;4944252;28;208652;-70
2022/11/11 15:36:17;;;;;;;;;;;11.90;99.90;;;;;;4969402;28;19923;-71
2022/11/11 15:38:43;;;;;;;;;;;11.90;99.90;;;;;;4956035;28;210131;-71